Main page
METAR-TAF:

METAR-TAF

Airports :

Vladivostok International Airport

Vladivostok, Russia

latitude: 43-07N, longitude: 131-56E, elevation: 184 m

Current weather observation

The report was made 35 minutes ago, at 05:00 UTC
Wind 6 kt from the North
Temperature -10°C
Humidity 31%
Pressure 1029 hPa
Visibility 10 km or more

METAR: UHWW 060500Z 01003MPS 9999 NSC M10/M24 Q1029 R25L/0///70 NOSIG RMK QFE771

Time: 15:35 (05:35 UTC)

Forecast

The report was made 35 minutes ago, at 05:00 UTC
Forecast valid from 06 at 06 UTC to 07 at 06 UTC
Wind 6 kt from the North
Visibility 10 km or more
Scattered clouds at a height of 3000 ft
Temporary
from 06 at 06 UTC to 06 at 08 UTC
Wind 16 kt from the North
Scattered clouds at a height of 2000 ft, Cumulonimbus.
Becoming
from 06 at 08 UTC to 06 at 10 UTC
Wind 6 kt from the South/Southwest
Broken clouds at a height of 2500 ft, Cumulonimbus.

TAF: UHWW 060500Z 0606/0706 36003MPS 9999 SCT030 TEMPO 0606/0608 35008MPS SCT020CB BECMG 0608/0610 20003MPS BKN025CB

Weather observations and forecasts of more than 4000 airports (METAR and TAF reports).

The available stations are represented by yellow and red dots on the map.

Hover mouse over dot to see the name of the station.

Then click to see weather observations and forecasts.

To change the map : click on the green buttons with a black cross to zoom in, on the green button with a dash to zoom out, or on the green arrows for adjacent maps.


METAR-TAF: